Time;durP1;ratioP1;P1;durP2;ratioP2;P2;SDS_P1;SDS_P2;PMS_P1;PMS_P2;Temp;Humidity;BMP_temperature;BMP_pressure;BME280_temperature;BME280_humidity;BME280_pressure;Samples;Min_cycle;Max_cycle;Signal;HPM_P1;HPM_P2
2021/06/27 00:03:21;;;;;;;16.3;10.8;;;;;;;15.46;100;98749.47;;;;
2021/06/27 00:13:20;;;;;;;11.3;9.3;;;;;;;15.44;100;98752.53;;;;
2021/06/27 00:23:20;;;;;;;11.7;10.4;;;;;;;15.35;100;98746.38;;;;
2021/06/27 00:33:19;;;;;;;16;13.2;;;;;;;15.27;100;98746.47;;;;
2021/06/27 00:43:19;;;;;;;14.2;12.7;;;;;;;15.3;100;98743.89;;;;
2021/06/27 00:53:18;;;;;;;20.2;15.1;;;;;;;15.33;100;98758.71;;;;
2021/06/27 01:03:17;;;;;;;15.9;13.6;;;;;;;15.28;100;98753.47;;;;
2021/06/27 01:13:17;;;;;;;14.3;12.8;;;;;;;15.24;100;98760.72;;;;
2021/06/27 01:23:16;;;;;;;15.2;12;;;;;;;15.13;100;98765.77;;;;
2021/06/27 01:33:16;;;;;;;17.4;11.7;;;;;;;14.88;100;98762.13;;;;
2021/06/27 01:43:15;;;;;;;13.6;9.5;;;;;;;14.74;100;98763.52;;;;
2021/06/27 01:53:14;;;;;;;19.8;10.4;;;;;;;14.61;100;98758;;;;
2021/06/27 02:03:14;;;;;;;11.5;9.9;;;;;;;14.58;100;98766;;;;
2021/06/27 02:13:13;;;;;;;15.1;10.8;;;;;;;14.61;100;98763.42;;;;
2021/06/27 02:23:12;;;;;;;11.3;9.2;;;;;;;14.62;100;98775.07;;;;
2021/06/27 02:33:12;;;;;;;12.1;9.6;;;;;;;14.53;100;98772.42;;;;
2021/06/27 02:43:11;;;;;;;10.7;9.5;;;;;;;14.47;100;98762.88;;;;
2021/06/27 02:53:10;;;;;;;14.7;11.9;;;;;;;14.55;100;98751.19;;;;
2021/06/27 03:03:10;;;;;;;13;11;;;;;;;14.47;100;98756.68;;;;
2021/06/27 03:13:09;;;;;;;13.1;9.5;;;;;;;14.47;100;98743.89;;;;
2021/06/27 03:23:08;;;;;;;10.2;9.1;;;;;;;14.49;100;98759.84;;;;
2021/06/27 03:33:10;;;;;;;13.4;9.7;;;;;;;14.41;100;98772.33;;;;
2021/06/27 03:43:07;;;;;;;12.6;7.4;;;;;;;14.57;100;98773.36;;;;
2021/06/27 03:53:06;;;;;;;13.7;9.2;;;;;;;14.82;100;98770.8;;;;
2021/06/27 04:03:06;;;;;;;10.5;8.4;;;;;;;15.06;100;98771.7;;;;
2021/06/27 04:13:05;;;;;;;9.7;8.2;;;;;;;15.08;100;98763.24;;;;
2021/06/27 04:23:05;;;;;;;13.3;11.9;;;;;;;15.34;100;98758.36;;;;
2021/06/27 04:33:04;;;;;;;11.8;9.9;;;;;;;15.81;100;98766.23;;;;
2021/06/27 04:43:04;;;;;;;18.5;15;;;;;;;16;100;98764.55;;;;
2021/06/27 04:53:03;;;;;;;17.2;13.6;;;;;;;16.63;100;98761.49;;;;
2021/06/27 05:03:04;;;;;;;15.6;12.1;;;;;;;16.96;100;98752.03;;;;
2021/06/27 05:13:03;;;;;;;11.7;10;;;;;;;17.54;100;98750.52;;;;
2021/06/27 05:23:02;;;;;;;12.4;10.9;;;;;;;17.94;100;98753.16;;;;
2021/06/27 05:33:02;;;;;;;11.3;10.2;;;;;;;18.2;100;98755.34;;;;
2021/06/27 05:43:02;;;;;;;13.5;10.1;;;;;;;18.52;100;98769.77;;;;
2021/06/27 05:53:02;;;;;;;11.4;8.7;;;;;;;18.4;100;98767.89;;;;
2021/06/27 06:03:02;;;;;;;12.1;10.8;;;;;;;18.92;100;98764.8;;;;
2021/06/27 06:13:02;;;;;;;16.3;14.6;;;;;;;19.31;100;98768.34;;;;
2021/06/27 06:23:02;;;;;;;16.7;15;;;;;;;19.72;100;98768.75;;;;
2021/06/27 06:33:02;;;;;;;15.8;14.1;;;;;;;19.86;100;98791.69;;;;
2021/06/27 06:43:02;;;;;;;14.6;12.3;;;;;;;19.74;100;98789.13;;;;
2021/06/27 06:53:02;;;;;;;18.7;14.6;;;;;;;20.1;100;98788.59;;;;
2021/06/27 07:03:03;;;;;;;12.3;11;;;;;;;20.2;100;98797.36;;;;
2021/06/27 07:13:03;;;;;;;17.1;12.9;;;;;;;20.77;100;98797.11;;;;
2021/06/27 07:23:03;;;;;;;18.3;14.5;;;;;;;21.5;100;98795.74;;;;
2021/06/27 07:33:03;;;;;;;16.8;15.1;;;;;;;21.8;100;98796.45;;;;
2021/06/27 07:43:03;;;;;;;15.8;12.6;;;;;;;22.31;100;98804.03;;;;
2021/06/27 07:53:04;;;;;;;13.8;12.3;;;;;;;22.19;100;98796.07;;;;
2021/06/27 08:03:04;;;;;;;13.8;11.8;;;;;;;22.37;100;98811.54;;;;
2021/06/27 08:13:05;;;;;;;11.1;9.7;;;;;;;22.47;100;98808.09;;;;
2021/06/27 08:23:05;;;;;;;15;11;;;;;;;22.72;100;98802.81;;;;
2021/06/27 08:33:06;;;;;;;12.2;9.6;;;;;;;22.95;100;98786.05;;;;
2021/06/27 08:43:07;;;;;;;14.2;9.1;;;;;;;23.05;100;98794.36;;;;
2021/06/27 08:53:07;;;;;;;10.4;9;;;;;;;23.66;100;98784.42;;;;
2021/06/27 09:03:10;;;;;;;12.3;9.9;;;;;;;23.78;100;98781.28;;;;
2021/06/27 09:13:09;;;;;;;9.2;6.5;;;;;;;24.11;100;98784.88;;;;
2021/06/27 09:23:09;;;;;;;12;8.5;;;;;;;24.35;100;98779.42;;;;
2021/06/27 09:33:10;;;;;;;8.4;6;;;;;;;24.33;98.26074;98775.48;;;;
2021/06/27 09:43:11;;;;;;;18.5;5.5;;;;;;;24.74;95.70703;98775.83;;;;
2021/06/27 09:53:12;;;;;;;8.2;5.8;;;;;;;25.38;86.73535;98779.98;;;;
2021/06/27 10:03:12;;;;;;;8.6;5.8;;;;;;;25.58;87.00586;98769.29;;;;
2021/06/27 10:13:13;;;;;;;9.9;5.1;;;;;;;26.25;86.26074;98766.08;;;;
2021/06/27 10:23:15;;;;;;;6.4;4.8;;;;;;;27.32;78.70605;98760.23;;;;
2021/06/27 10:33:16;;;;;;;9.5;3.9;;;;;;;27.11;85.80273;98746.69;;;;
2021/06/27 10:43:17;;;;;;;5.4;2.9;;;;;;;27.11;69.64258;98744.69;;;;
2021/06/27 10:53:18;;;;;;;6.7;4.7;;;;;;;27.13;73.39844;98727.68;;;;
2021/06/27 11:03:28;;;;;;;5.8;3.6;;;;;;;26.9;65.74707;98714.53;;;;
2021/06/27 11:13:20;;;;;;;7.1;5;;;;;;;26.88;72.23438;98711.38;;;;
2021/06/27 11:23:21;;;;;;;6.8;4.7;;;;;;;26.02;81.49316;98724.41;;;;
2021/06/27 11:33:23;;;;;;;12.4;7.5;;;;;;;26.2;81.49023;98702.19;;;;
2021/06/27 11:43:23;;;;;;;7.5;5.4;;;;;;;25.06;87.95117;98693.8;;;;
2021/06/27 11:53:25;;;;;;;9.5;6.3;;;;;;;24.84;94.79102;98695.89;;;;
2021/06/27 12:03:25;;;;;;;8.6;5.4;;;;;;;24.63;89.63184;98679.38;;;;
2021/06/27 12:13:26;;;;;;;12;5.1;;;;;;;25.46;90.01953;98676.66;;;;
2021/06/27 12:23:27;;;;;;;8.5;4.7;;;;;;;25.48;84.22852;98674.27;;;;
2021/06/27 12:33:28;;;;;;;8.1;4.6;;;;;;;26.36;83.0957;98669.26;;;;
2021/06/27 12:43:29;;;;;;;7;5;;;;;;;26.76;76.78418;98657.34;;;;
2021/06/27 12:53:30;;;;;;;11.9;5.6;;;;;;;26.48;79.30957;98650.16;;;;
2021/06/27 13:03:31;;;;;;;7.5;5.8;;;;;;;26.74;77.36621;98665.28;;;;
2021/06/27 13:13:32;;;;;;;7.9;5.1;;;;;;;26.6;74.19141;98650.83;;;;
2021/06/27 13:23:33;;;;;;;6.5;4.6;;;;;;;26.84;73.51758;98650.56;;;;
2021/06/27 13:33:35;;;;;;;6.8;4.2;;;;;;;26.49;74.52734;98635.15;;;;
2021/06/27 13:43:35;;;;;;;6.5;3.9;;;;;;;27.05;70.13672;98634.89;;;;
2021/06/27 13:53:36;;;;;;;6.6;4.5;;;;;;;27.18;73.88867;98630.38;;;;
2021/06/27 14:03:38;;;;;;;7.2;5.3;;;;;;;26.9;72.40234;98629.54;;;;
2021/06/27 14:13:39;;;;;;;7;5.4;;;;;;;27.83;68.55273;98620.69;;;;
2021/06/27 14:23:40;;;;;;;7.8;5;;;;;;;28.63;72.43066;98620.41;;;;
2021/06/27 14:33:41;;;;;;;5.2;3.4;;;;;;;28.67;66.19238;98625.91;;;;
2021/06/27 14:43:42;;;;;;;5.3;3.7;;;;;;;29.12;59.9834;98631.7;;;;
2021/06/27 14:53:43;;;;;;;5.3;3.2;;;;;;;29.29;54.7627;98608.33;;;;
2021/06/27 15:03:45;;;;;;;6.2;3.8;;;;;;;30.81;54.87402;98604.37;;;;
2021/06/27 15:13:48;;;;;;;6.7;4.6;;;;;;;32.34;55.88086;98606.61;;;;
2021/06/27 15:23:48;;;;;;;8.1;4.7;;;;;;;32.16;58.84961;98623.97;;;;
2021/06/27 15:33:50;;;;;;;6.8;4;;;;;;;31.09;59.50781;98623.04;;;;
2021/06/27 15:43:51;;;;;;;6.8;4.8;;;;;;;29.76;61.5957;98617.1;;;;
2021/06/27 15:53:53;;;;;;;5.9;4.4;;;;;;;30.48;61.89551;98609.28;;;;
2021/06/27 16:03:54;;;;;;;7.3;4.4;;;;;;;28.14;68.4707;98601.95;;;;
2021/06/27 16:13:57;;;;;;;5.8;4.1;;;;;;;29.6;64.55566;98604.02;;;;
2021/06/27 16:23:57;;;;;;;7.8;5.2;;;;;;;30.39;63.29492;98615.47;;;;
2021/06/27 16:33:59;;;;;;;6.9;3.7;;;;;;;30.16;63.33203;98612.14;;;;
2021/06/27 16:44:01;;;;;;;5.4;3.8;;;;;;;30.77;60.46387;98607.25;;;;
2021/06/27 16:54:02;;;;;;;8.6;4.8;;;;;;;31.61;57.55371;98619.83;;;;
2021/06/27 17:04:04;;;;;;;5.5;3.5;;;;;;;31.07;58.25781;98631.04;;;;
2021/06/27 17:14:06;;;;;;;6.7;4.9;;;;;;;28.78;65.0166;98615.36;;;;
2021/06/27 17:24:07;;;;;;;6.4;4.1;;;;;;;27.25;68.63086;98616.41;;;;
2021/06/27 17:34:08;;;;;;;6.3;4.5;;;;;;;27.99;70.47266;98607.72;;;;
2021/06/27 17:44:10;;;;;;;6.3;4.8;;;;;;;29.75;64.56445;98613.53;;;;
2021/06/27 17:54:11;;;;;;;8;4;;;;;;;30.61;60.22949;98615.69;;;;
2021/06/27 18:04:12;;;;;;;5.4;3.6;;;;;;;29.78;61.08887;98603.58;;;;
2021/06/27 18:14:14;;;;;;;7.4;4.6;;;;;;;27.85;65.43848;98587.79;;;;
2021/06/27 18:24:15;;;;;;;7.7;5.8;;;;;;;25.78;75.0752;98582.59;;;;
2021/06/27 18:34:16;;;;;;;7.6;5.4;;;;;;;24.35;80.50684;98585.78;;;;
2021/06/27 18:44:18;;;;;;;7.3;5.4;;;;;;;23.23;86.49512;98590.15;;;;
2021/06/27 18:54:17;;;;;;;9;5.9;;;;;;;22.31;92.41699;98596.13;;;;
2021/06/27 19:04:17;;;;;;;11.4;6.1;;;;;;;21.37;100;98606.02;;;;
2021/06/27 19:14:17;;;;;;;13.3;9.1;;;;;;;20.83;100;98627.72;;;;
2021/06/27 19:24:18;;;;;;;9.6;7.3;;;;;;;20.37;100;98632.64;;;;
2021/06/27 19:34:18;;;;;;;9.7;6.6;;;;;;;19.74;100;98624.25;;;;
2021/06/27 19:44:19;;;;;;;12;7.4;;;;;;;19.28;100;98634.37;;;;
2021/06/27 19:54:18;;;;;;;8.5;6.7;;;;;;;19.13;100;98636.05;;;;
2021/06/27 20:04:17;;;;;;;10.7;8.1;;;;;;;18.89;100;98641.83;;;;
2021/06/27 20:14:17;;;;;;;11.7;10.4;;;;;;;18.7;100;98660.96;;;;
2021/06/27 20:24:17;;;;;;;12.4;9.2;;;;;;;18.43;100;98662.71;;;;
2021/06/27 20:34:17;;;;;;;12.7;8.5;;;;;;;18.29;100;98659.67;;;;
2021/06/27 20:44:17;;;;;;;10.4;6.9;;;;;;;18.15;100;98667.53;;;;
2021/06/27 20:54:16;;;;;;;12.8;8.7;;;;;;;17.91;100;98660.36;;;;
2021/06/27 21:04:16;;;;;;;13;9.5;;;;;;;17.76;100;98667.4;;;;
2021/06/27 21:14:16;;;;;;;15.8;10.6;;;;;;;17.61;100;98681.81;;;;
2021/06/27 21:24:15;;;;;;;15.3;10.1;;;;;;;17.45;100;98681.78;;;;
2021/06/27 21:34:15;;;;;;;12;9.9;;;;;;;17.25;100;98682.78;;;;
2021/06/27 21:44:15;;;;;;;11.9;10.6;;;;;;;17.11;100;98685.14;;;;
2021/06/27 21:54:14;;;;;;;10.4;8.9;;;;;;;16.93;100;98695.55;;;;
2021/06/27 22:04:14;;;;;;;15.3;12;;;;;;;16.72;100;98697.66;;;;
2021/06/27 22:14:13;;;;;;;25.3;12.5;;;;;;;16.66;100;98709.89;;;;
2021/06/27 22:24:13;;;;;;;14.9;12.9;;;;;;;16.57;100;98703.8;;;;
2021/06/27 22:34:13;;;;;;;16.7;12.2;;;;;;;16.45;100;98709.25;;;;
2021/06/27 22:44:13;;;;;;;11.7;8.8;;;;;;;16.31;100;98696.02;;;;
2021/06/27 22:54:11;;;;;;;14.8;10.5;;;;;;;16.18;100;98701.78;;;;
2021/06/27 23:04:11;;;;;;;14.1;12.5;;;;;;;15.93;100;98698.3;;;;
2021/06/27 23:14:10;;;;;;;15.4;13.9;;;;;;;15.97;100;98694.55;;;;
2021/06/27 23:24:10;;;;;;;13.4;11.2;;;;;;;15.86;100;98698.07;;;;
2021/06/27 23:34:09;;;;;;;21.3;12.9;;;;;;;15.88;100;98696.59;;;;
2021/06/27 23:44:09;;;;;;;11.5;9.2;;;;;;;15.77;100;98698.16;;;;
2021/06/27 23:54:08;;;;;;;12.8;9.5;;;;;;;15.68;100;98702.92;;;;
